createdAt,value
2023-05-06T00:00:44.558Z,16.63
2023-05-06T00:03:13.364Z,16.66
2023-05-06T00:05:42.777Z,16.69
2023-05-06T00:08:10.947Z,16.72
2023-05-06T00:10:39.149Z,16.72
2023-05-06T00:13:09.333Z,16.71
2023-05-06T00:15:37.537Z,16.68
2023-05-06T00:18:06.015Z,16.73
2023-05-06T00:20:34.273Z,16.73
2023-05-06T00:23:02.316Z,16.77
2023-05-06T00:25:30.312Z,16.75
2023-05-06T00:27:58.208Z,16.70
2023-05-06T00:30:28.291Z,16.69
2023-05-06T00:32:56.763Z,16.65
2023-05-06T00:35:25.410Z,16.63
2023-05-06T00:37:59.033Z,16.59
2023-05-06T00:40:27.474Z,16.59
2023-05-06T00:42:55.933Z,16.58
2023-05-06T00:45:26.047Z,16.53
2023-05-06T00:47:56.339Z,16.49
2023-05-06T00:50:25.684Z,16.48
2023-05-06T00:52:54.678Z,16.45
2023-05-06T00:55:23.221Z,16.44
2023-05-06T00:57:52.999Z,16.44
2023-05-06T01:00:22.454Z,16.40
2023-05-06T01:02:50.703Z,16.30
2023-05-06T01:05:23.348Z,16.20
2023-05-06T01:08:02.021Z,16.14
2023-05-06T01:10:39.161Z,16.16
2023-05-06T01:13:16.231Z,16.09
2023-05-06T01:15:47.569Z,16.05
2023-05-06T01:18:18.541Z,16.04
2023-05-06T01:20:50.995Z,15.97
2023-05-06T01:23:20.935Z,15.97
2023-05-06T01:25:49.196Z,15.93
2023-05-06T01:28:18.869Z,15.92
2023-05-06T01:30:56.875Z,15.90
2023-05-06T01:33:38.250Z,15.84
2023-05-06T01:36:17.088Z,15.82
2023-05-06T01:38:58.936Z,15.81
2023-05-06T01:41:29.055Z,15.82
2023-05-06T01:44:01.664Z,15.80
2023-05-06T01:46:32.135Z,15.79
2023-05-06T01:49:05.271Z,15.75
2023-05-06T01:51:34.220Z,15.75
2023-05-06T01:54:05.264Z,15.69
2023-05-06T01:56:33.421Z,15.70
2023-05-06T01:59:01.946Z,15.71
2023-05-06T02:01:30.167Z,15.72
2023-05-06T02:03:58.494Z,15.67
2023-05-06T02:06:27.193Z,15.66
2023-05-06T02:08:55.326Z,15.64
2023-05-06T02:11:27.288Z,15.65
2023-05-06T02:14:01.990Z,15.65
2023-05-06T02:16:32.123Z,15.67
2023-05-06T02:19:00.207Z,15.67
2023-05-06T02:21:28.524Z,15.67
2023-05-06T02:23:56.575Z,15.65
2023-05-06T02:26:24.697Z,15.62
2023-05-06T02:28:54.120Z,15.59
2023-05-06T02:31:22.454Z,15.60
2023-05-06T02:33:50.773Z,15.61
2023-05-06T02:36:19.000Z,15.63
2023-05-06T02:38:48.193Z,15.64
2023-05-06T02:41:16.313Z,15.66
2023-05-06T02:43:44.354Z,15.69
2023-05-06T02:46:33.294Z,15.71
2023-05-06T02:49:20.056Z,15.72
2023-05-06T02:51:48.581Z,15.75
2023-05-06T02:54:17.063Z,15.77
2023-05-06T02:56:46.369Z,15.80
2023-05-06T02:59:14.913Z,15.83
2023-05-06T03:01:44.774Z,15.86
2023-05-06T03:04:14.373Z,15.87
2023-05-06T03:06:42.958Z,15.88
2023-05-06T03:09:11.644Z,15.91
2023-05-06T03:11:39.885Z,15.88
2023-05-06T03:14:08.031Z,15.86
2023-05-06T03:16:36.474Z,15.86
2023-05-06T03:19:06.607Z,15.83
2023-05-06T03:21:35.189Z,15.82
2023-05-06T03:24:04.454Z,15.78
2023-05-06T03:26:32.726Z,15.73
2023-05-06T03:29:01.167Z,15.71
2023-05-06T03:31:29.428Z,15.70
2023-05-06T03:33:59.276Z,15.66
2023-05-06T03:36:29.330Z,15.55
2023-05-06T03:38:57.317Z,15.49
2023-05-06T03:41:26.431Z,15.44
2023-05-06T03:43:55.868Z,15.39
2023-05-06T03:46:27.243Z,15.40
2023-05-06T03:48:55.555Z,15.37
2023-05-06T03:51:24.509Z,15.34
2023-05-06T03:53:54.909Z,15.34
2023-05-06T03:56:24.343Z,15.29
2023-05-06T03:58:55.311Z,15.30
2023-05-06T04:01:25.572Z,15.33
2023-05-06T04:03:54.770Z,15.32
2023-05-06T04:06:24.643Z,15.27
2023-05-06T04:08:54.238Z,15.27
2023-05-06T04:11:22.379Z,15.30
2023-05-06T04:13:50.539Z,15.33
2023-05-06T04:16:21.691Z,15.35
2023-05-06T04:18:51.606Z,15.35
2023-05-06T04:21:20.343Z,15.27
2023-05-06T04:23:56.486Z,15.25
2023-05-06T04:26:33.101Z,15.22
2023-05-06T04:29:01.548Z,15.18
2023-05-06T04:31:33.040Z,15.21
2023-05-06T04:34:04.595Z,15.19
2023-05-06T04:36:34.116Z,15.22
2023-05-06T04:39:26.904Z,15.26
2023-05-06T04:41:54.900Z,15.29
2023-05-06T04:44:31.161Z,15.34
2023-05-06T04:46:59.784Z,15.37
2023-05-06T04:49:28.021Z,15.43
2023-05-06T04:51:57.056Z,15.50
2023-05-06T04:54:27.587Z,15.55
2023-05-06T04:56:56.077Z,15.61
2023-05-06T04:59:24.732Z,15.64
2023-05-06T05:01:52.830Z,15.69
2023-05-06T05:04:21.741Z,15.76
2023-05-06T05:06:50.610Z,15.86
2023-05-06T05:09:18.926Z,15.97
2023-05-06T05:11:51.354Z,16.04
2023-05-06T05:14:20.645Z,16.04
2023-05-06T05:16:48.951Z,16.04
2023-05-06T05:19:17.321Z,16.05
2023-05-06T05:21:45.916Z,16.05
2023-05-06T05:24:14.726Z,16.13
2023-05-06T05:26:43.585Z,16.17
2023-05-06T05:29:13.257Z,16.23
2023-05-06T05:31:43.043Z,16.31
2023-05-06T05:34:11.644Z,16.36
2023-05-06T05:36:39.729Z,16.44
2023-05-06T05:39:11.660Z,16.52
2023-05-06T05:41:44.838Z,16.59
2023-05-06T05:44:15.041Z,16.63
2023-05-06T05:46:44.329Z,16.71
2023-05-06T05:49:15.773Z,16.79
2023-05-06T05:51:44.152Z,16.85
2023-05-06T05:54:16.639Z,16.95
2023-05-06T05:56:45.178Z,17.05
2023-05-06T05:59:14.549Z,17.11
2023-05-06T06:01:43.925Z,17.22
2023-05-06T06:04:12.432Z,17.37
2023-05-06T06:06:40.622Z,17.51
2023-05-06T06:09:08.981Z,17.64
2023-05-06T06:11:39.086Z,17.77
2023-05-06T06:14:08.343Z,17.90
2023-05-06T06:16:39.120Z,18.06
2023-05-06T06:19:07.604Z,18.20
2023-05-06T06:21:36.330Z,18.29
2023-05-06T06:24:06.347Z,18.39
2023-05-06T06:26:34.901Z,18.50
2023-05-06T06:29:03.056Z,18.57
2023-05-06T06:31:31.248Z,18.63
2023-05-06T06:34:00.704Z,18.70
2023-05-06T06:36:28.870Z,18.76
2023-05-06T06:38:57.236Z,18.84
2023-05-06T06:41:25.311Z,18.93
2023-05-06T06:43:53.428Z,18.98
2023-05-06T06:46:25.899Z,19.05
2023-05-06T06:48:54.011Z,19.09
2023-05-06T06:51:23.365Z,19.16
2023-05-06T06:53:53.130Z,19.15
2023-05-06T06:56:21.950Z,19.23
2023-05-06T06:58:51.809Z,19.33
2023-05-06T07:01:21.534Z,19.44
2023-05-06T07:03:49.626Z,19.42
2023-05-06T07:06:17.941Z,19.43
2023-05-06T07:08:47.897Z,19.52
2023-05-06T07:11:15.992Z,19.62
2023-05-06T07:13:44.194Z,19.70
2023-05-06T07:16:12.215Z,19.77
2023-05-06T07:18:40.479Z,19.89
2023-05-06T07:21:08.782Z,19.98
2023-05-06T07:23:36.784Z,20.00
2023-05-06T07:26:06.750Z,20.06
2023-05-06T07:28:35.409Z,20.13
2023-05-06T07:31:04.531Z,20.27
2023-05-06T07:33:32.559Z,20.36
2023-05-06T07:36:00.980Z,20.50
2023-05-06T07:38:29.624Z,20.68
2023-05-06T07:40:57.848Z,20.87
2023-05-06T07:43:27.602Z,20.99
2023-05-06T07:46:02.524Z,21.06
2023-05-06T07:48:30.804Z,21.19
2023-05-06T07:50:59.381Z,21.16
2023-05-06T07:53:28.964Z,21.18
2023-05-06T07:56:02.500Z,21.15
2023-05-06T07:58:33.270Z,21.17
2023-05-06T08:01:01.596Z,21.19
2023-05-06T08:03:30.009Z,21.18
2023-05-06T08:05:58.594Z,21.20
2023-05-06T08:08:30.054Z,21.15
2023-05-06T08:10:59.670Z,21.18
2023-05-06T08:13:28.371Z,21.15
2023-05-06T08:15:59.070Z,21.17
2023-05-06T08:18:27.444Z,21.14
2023-05-06T08:20:55.772Z,21.27
2023-05-06T08:23:24.252Z,21.50
2023-05-06T08:25:52.701Z,21.58
2023-05-06T08:28:22.107Z,21.79
2023-05-06T08:30:52.331Z,21.91
2023-05-06T08:33:21.854Z,22.02
2023-05-06T08:35:52.680Z,22.07
2023-05-06T08:38:21.942Z,22.07
2023-05-06T08:40:50.408Z,22.06
2023-05-06T08:43:22.771Z,22.14
2023-05-06T08:45:51.785Z,22.21
2023-05-06T08:48:22.103Z,22.21
2023-05-06T08:50:52.096Z,22.16
2023-05-06T08:53:20.407Z,22.26
2023-05-06T08:55:53.098Z,22.30
2023-05-06T08:58:26.108Z,22.13
2023-05-06T09:00:54.418Z,21.94
2023-05-06T09:03:24.018Z,21.76
2023-05-06T09:05:52.632Z,22.10
2023-05-06T09:08:20.957Z,22.39
2023-05-06T09:10:49.287Z,22.71
2023-05-06T09:13:18.683Z,23.09
2023-05-06T09:15:48.438Z,23.38
2023-05-06T09:18:17.982Z,23.50
2023-05-06T09:20:49.321Z,23.67
2023-05-06T09:23:19.278Z,23.82
2023-05-06T09:25:49.944Z,23.87
2023-05-06T09:28:18.420Z,23.88
2023-05-06T09:30:48.011Z,23.95
2023-05-06T09:33:16.528Z,23.85
2023-05-06T09:35:45.955Z,23.87
2023-05-06T09:38:15.350Z,23.72
2023-05-06T09:40:43.337Z,23.50
2023-05-06T09:43:12.407Z,23.38
2023-05-06T09:45:41.141Z,23.19
2023-05-06T09:48:09.805Z,23.15
2023-05-06T09:50:38.514Z,23.01
2023-05-06T09:53:08.444Z,23.06
2023-05-06T09:55:39.177Z,23.04
2023-05-06T09:58:09.992Z,23.12
2023-05-06T10:00:39.341Z,23.25
2023-05-06T10:03:08.324Z,23.29
2023-05-06T10:05:37.809Z,23.24
2023-05-06T10:08:08.405Z,23.23
2023-05-06T10:10:38.709Z,23.34
2023-05-06T10:13:07.201Z,23.84
2023-05-06T10:15:36.093Z,24.12
2023-05-06T10:18:04.974Z,24.50
2023-05-06T10:20:35.916Z,24.84
2023-05-06T10:23:14.234Z,25.40
2023-05-06T10:25:45.864Z,25.92
2023-05-06T10:28:17.242Z,26.11
2023-05-06T10:31:00.350Z,26.57
2023-05-06T10:33:32.048Z,26.62
2023-05-06T10:36:21.766Z,26.61
2023-05-06T10:38:54.916Z,26.66
2023-05-06T10:41:29.796Z,26.55
2023-05-06T10:44:00.105Z,26.25
2023-05-06T10:46:31.313Z,26.43
2023-05-06T10:49:20.032Z,26.27
2023-05-06T10:52:12.831Z,26.34
2023-05-06T10:54:51.354Z,26.08
2023-05-06T10:57:27.530Z,25.85
2023-05-06T10:59:56.040Z,26.08
2023-05-06T11:02:25.443Z,26.34
2023-05-06T11:05:02.379Z,26.72
2023-05-06T11:07:30.779Z,27.02
2023-05-06T11:10:02.524Z,27.18
2023-05-06T11:12:50.138Z,27.15
2023-05-06T11:15:25.584Z,27.46
2023-05-06T11:17:55.096Z,27.58
2023-05-06T11:20:27.582Z,27.70
2023-05-06T11:22:56.280Z,27.59
2023-05-06T11:25:40.808Z,27.03
2023-05-06T11:28:12.085Z,26.97
2023-05-06T11:30:42.840Z,26.82
2023-05-06T11:33:20.373Z,26.61
2023-05-06T11:35:49.154Z,26.45
2023-05-06T11:38:17.404Z,26.56
2023-05-06T11:40:45.542Z,26.71
2023-05-06T11:43:17.009Z,26.84
2023-05-06T11:45:47.045Z,26.99
2023-05-06T11:48:16.450Z,27.31
2023-05-06T11:50:49.100Z,27.37
2023-05-06T11:53:21.143Z,27.35
2023-05-06T11:55:50.834Z,27.46
2023-05-06T11:58:26.765Z,27.63
2023-05-06T12:00:57.277Z,27.35
2023-05-06T12:03:26.709Z,27.31
2023-05-06T12:05:55.908Z,27.12
2023-05-06T12:08:28.261Z,27.08
2023-05-06T12:11:02.028Z,27.19
2023-05-06T12:13:32.323Z,27.37
2023-05-06T12:16:01.465Z,27.28
2023-05-06T12:18:30.610Z,27.19
2023-05-06T12:21:03.455Z,27.18
2023-05-06T12:23:32.370Z,27.10
2023-05-06T12:26:03.772Z,27.21
2023-05-06T12:28:36.604Z,27.38
2023-05-06T12:31:19.593Z,27.46
2023-05-06T12:33:50.353Z,27.47
2023-05-06T12:36:19.724Z,27.49
2023-05-06T12:38:52.374Z,27.59
2023-05-06T12:41:21.273Z,27.54
2023-05-06T12:43:52.639Z,27.41
2023-05-06T12:46:21.097Z,27.32
2023-05-06T12:48:59.935Z,27.16
2023-05-06T12:51:30.764Z,26.91
2023-05-06T12:53:59.216Z,26.69
2023-05-06T12:56:27.197Z,26.56
2023-05-06T12:59:01.263Z,26.46
2023-05-06T13:01:29.616Z,26.48
2023-05-06T13:03:58.641Z,26.49
2023-05-06T13:06:26.909Z,26.55
2023-05-06T13:08:54.973Z,26.62
2023-05-06T13:11:24.720Z,26.72
2023-05-06T13:13:52.805Z,26.87
2023-05-06T13:16:22.580Z,26.98
2023-05-06T13:18:50.653Z,27.01
2023-05-06T13:21:18.798Z,27.02
2023-05-06T13:23:48.037Z,26.97
2023-05-06T13:26:17.372Z,26.87
2023-05-06T13:28:45.918Z,26.88
2023-05-06T13:31:14.484Z,26.89
2023-05-06T13:33:43.820Z,26.85
2023-05-06T13:36:12.120Z,26.76
2023-05-06T13:38:40.737Z,26.48
2023-05-06T13:41:08.876Z,26.40
2023-05-06T13:43:37.393Z,26.32
2023-05-06T13:46:05.471Z,26.25
2023-05-06T13:48:34.151Z,26.21
2023-05-06T13:51:03.874Z,26.14
2023-05-06T13:53:32.022Z,26.14
2023-05-06T13:56:00.549Z,26.12
2023-05-06T13:58:28.544Z,26.13
2023-05-06T14:00:56.456Z,26.14
2023-05-06T14:03:24.773Z,26.12
2023-05-06T14:05:53.227Z,26.03
2023-05-06T14:08:23.820Z,25.92
2023-05-06T14:10:51.963Z,25.81
2023-05-06T14:13:20.476Z,25.79
2023-05-06T14:15:48.856Z,25.75
2023-05-06T14:18:16.995Z,25.76
2023-05-06T14:20:45.411Z,25.76
2023-05-06T14:23:13.888Z,25.71
2023-05-06T14:25:44.619Z,25.76
2023-05-06T14:28:13.180Z,25.82
2023-05-06T14:30:41.391Z,25.78
2023-05-06T14:33:11.557Z,25.77
2023-05-06T14:35:41.920Z,25.71
2023-05-06T14:38:10.427Z,25.61
2023-05-06T14:40:39.479Z,25.54
2023-05-06T14:43:09.724Z,25.41
2023-05-06T14:45:37.731Z,25.32
2023-05-06T14:48:06.767Z,25.22
2023-05-06T14:50:35.336Z,25.09
2023-05-06T14:53:04.080Z,24.98
2023-05-06T14:55:32.251Z,24.89
2023-05-06T14:58:00.356Z,24.86
2023-05-06T15:00:29.862Z,24.81
2023-05-06T15:02:58.490Z,24.75
2023-05-06T15:05:26.991Z,24.70
2023-05-06T15:07:55.264Z,24.62
2023-05-06T15:10:23.411Z,24.60
2023-05-06T15:12:52.979Z,24.63
2023-05-06T15:15:21.520Z,24.69
2023-05-06T15:17:52.356Z,24.72
2023-05-06T15:20:20.496Z,24.82
2023-05-06T15:22:48.647Z,24.86
2023-05-06T15:25:30.304Z,24.85
2023-05-06T15:28:02.916Z,24.87
2023-05-06T15:30:30.868Z,24.87
2023-05-06T15:33:02.744Z,24.73
2023-05-06T15:35:31.656Z,24.64
2023-05-06T15:37:59.725Z,24.78
2023-05-06T15:40:28.233Z,24.89
2023-05-06T15:42:57.305Z,24.88
2023-05-06T15:45:25.858Z,24.90
2023-05-06T15:47:54.608Z,24.93
2023-05-06T15:50:32.698Z,24.92
2023-05-06T15:53:02.358Z,24.58
2023-05-06T15:55:35.101Z,24.72
2023-05-06T15:58:11.733Z,24.87
2023-05-06T16:00:39.892Z,24.90
2023-05-06T16:03:11.592Z,24.96
2023-05-06T16:05:41.938Z,25.03
2023-05-06T16:08:09.924Z,25.10
2023-05-06T16:10:38.125Z,25.17
2023-05-06T16:13:06.272Z,25.20
2023-05-06T16:15:35.377Z,25.19
2023-05-06T16:18:03.814Z,25.19
2023-05-06T16:20:32.595Z,25.14
2023-05-06T16:23:03.696Z,24.99
2023-05-06T16:25:31.715Z,24.82
2023-05-06T16:28:00.184Z,24.76
2023-05-06T16:30:28.728Z,24.74
2023-05-06T16:32:57.106Z,24.76
2023-05-06T16:35:26.705Z,24.57
2023-05-06T16:37:55.738Z,24.61
2023-05-06T16:40:25.689Z,24.38
2023-05-06T16:42:53.818Z,24.48
2023-05-06T16:45:21.864Z,24.58
2023-05-06T16:47:50.214Z,24.09
2023-05-06T16:50:18.876Z,24.20
2023-05-06T16:52:48.494Z,24.07
2023-05-06T16:55:16.891Z,24.21
2023-05-06T16:57:46.337Z,24.32
2023-05-06T17:00:16.498Z,24.35
2023-05-06T17:02:44.730Z,24.33
2023-05-06T17:05:14.749Z,24.33
2023-05-06T17:07:42.852Z,24.27
2023-05-06T17:10:12.609Z,24.21
2023-05-06T17:12:41.571Z,24.15
2023-05-06T17:15:12.776Z,24.03
2023-05-06T17:17:41.255Z,24.05
2023-05-06T17:20:12.184Z,24.07
2023-05-06T17:22:41.174Z,23.94
2023-05-06T17:25:10.606Z,23.74
2023-05-06T17:27:38.658Z,23.56
2023-05-06T17:30:09.611Z,23.39
2023-05-06T17:32:39.807Z,23.28
2023-05-06T17:35:08.446Z,23.12
2023-05-06T17:37:36.720Z,22.99
2023-05-06T17:40:06.845Z,22.80
2023-05-06T17:42:35.592Z,22.68
2023-05-06T17:45:03.706Z,22.55
2023-05-06T17:47:32.715Z,22.48
2023-05-06T17:50:02.133Z,22.36
2023-05-06T17:52:30.478Z,22.32
2023-05-06T17:55:15.030Z,22.27
2023-05-06T17:57:46.777Z,22.23
2023-05-06T18:00:16.717Z,22.18
2023-05-06T18:02:47.359Z,22.11
2023-05-06T18:05:17.568Z,22.03
2023-05-06T18:07:45.564Z,22.00
2023-05-06T18:10:14.116Z,21.95
2023-05-06T18:12:42.261Z,21.85
2023-05-06T18:15:11.717Z,21.76
2023-05-06T18:17:40.672Z,21.70
2023-05-06T18:20:11.429Z,21.63
2023-05-06T18:22:42.781Z,21.60
2023-05-06T18:25:11.686Z,21.56
2023-05-06T18:27:40.188Z,21.48
2023-05-06T18:30:09.802Z,21.39
2023-05-06T18:32:38.324Z,21.34
2023-05-06T18:35:07.349Z,21.30
2023-05-06T18:37:35.581Z,21.25
2023-05-06T18:40:06.159Z,21.19
2023-05-06T18:42:35.555Z,21.10
2023-05-06T18:45:06.951Z,20.94
2023-05-06T18:47:36.900Z,20.80
2023-05-06T18:50:05.780Z,20.35
2023-05-06T18:52:36.105Z,20.24
2023-05-06T18:55:07.532Z,20.30
2023-05-06T18:57:37.224Z,20.34
2023-05-06T19:00:07.175Z,20.32
2023-05-06T19:02:35.367Z,20.29
2023-05-06T19:05:03.622Z,20.29
2023-05-06T19:07:31.661Z,20.35
2023-05-06T19:09:59.672Z,20.27
2023-05-06T19:12:28.897Z,20.16
2023-05-06T19:14:56.950Z,20.03
2023-05-06T19:17:25.141Z,20.03
2023-05-06T19:19:53.097Z,19.94
2023-05-06T19:22:21.308Z,19.63
2023-05-06T19:24:49.467Z,19.56
2023-05-06T19:27:17.595Z,19.59
2023-05-06T19:29:48.286Z,19.61
2023-05-06T19:32:16.264Z,19.53
2023-05-06T19:34:44.394Z,19.52
2023-05-06T19:37:12.475Z,19.42
2023-05-06T19:39:40.905Z,19.41
2023-05-06T19:42:09.003Z,19.38
2023-05-06T19:44:37.386Z,19.21
2023-05-06T19:47:06.735Z,19.11
2023-05-06T19:49:34.670Z,19.18
2023-05-06T19:52:02.835Z,19.18
2023-05-06T19:54:31.098Z,19.19
2023-05-06T19:56:59.856Z,19.25
2023-05-06T19:59:28.495Z,19.26
2023-05-06T20:01:59.111Z,19.16
2023-05-06T20:04:29.120Z,19.14
2023-05-06T20:06:58.165Z,19.16
2023-05-06T20:09:26.184Z,19.08
2023-05-06T20:11:54.906Z,19.00
2023-05-06T20:14:22.913Z,18.88
2023-05-06T20:16:51.665Z,18.88
2023-05-06T20:19:21.345Z,18.87
2023-05-06T20:21:50.940Z,18.83
2023-05-06T20:24:19.052Z,18.81
2023-05-06T20:26:47.095Z,18.68
2023-05-06T20:29:16.072Z,18.77
2023-05-06T20:31:47.011Z,18.77
2023-05-06T20:34:15.271Z,18.77
2023-05-06T20:36:44.350Z,18.80
2023-05-06T20:39:13.892Z,18.74
2023-05-06T20:41:42.265Z,18.73
2023-05-06T20:44:10.245Z,18.77
2023-05-06T20:46:38.375Z,18.80
2023-05-06T20:49:07.092Z,18.81
2023-05-06T20:51:36.751Z,18.78
2023-05-06T20:54:05.043Z,18.72
2023-05-06T20:56:34.580Z,18.67
2023-05-06T20:59:02.762Z,18.63
2023-05-06T21:01:31.000Z,18.63
2023-05-06T21:04:01.402Z,18.63
2023-05-06T21:06:29.409Z,18.61
2023-05-06T21:08:58.057Z,18.57
2023-05-06T21:11:28.789Z,18.51
2023-05-06T21:13:58.969Z,18.49
2023-05-06T21:16:27.126Z,18.48
2023-05-06T21:18:55.437Z,18.43
2023-05-06T21:21:25.053Z,18.36
2023-05-06T21:23:53.448Z,18.33
2023-05-06T21:26:21.487Z,18.26
2023-05-06T21:28:52.041Z,18.23
2023-05-06T21:31:23.882Z,18.23
2023-05-06T21:33:56.490Z,18.19
2023-05-06T21:36:24.771Z,18.18
2023-05-06T21:39:01.968Z,18.19
2023-05-06T21:41:30.152Z,18.18
2023-05-06T21:43:58.594Z,18.18
2023-05-06T21:46:28.398Z,18.14
2023-05-06T21:48:57.108Z,18.08
2023-05-06T21:51:28.190Z,17.98
2023-05-06T21:53:56.920Z,17.93
2023-05-06T21:56:25.464Z,17.93
2023-05-06T21:58:54.697Z,17.93
2023-05-06T22:01:23.473Z,17.91
2023-05-06T22:03:53.390Z,17.82
2023-05-06T22:06:22.179Z,17.73
2023-05-06T22:08:50.179Z,17.68
2023-05-06T22:11:18.483Z,17.66
2023-05-06T22:13:46.777Z,17.67
2023-05-06T22:16:15.029Z,17.66
2023-05-06T22:18:43.337Z,17.61
2023-05-06T22:21:12.982Z,17.54
2023-05-06T22:23:41.380Z,17.51
2023-05-06T22:26:09.358Z,17.46
2023-05-06T22:28:37.505Z,17.41
2023-05-06T22:31:05.810Z,17.36
2023-05-06T22:33:33.953Z,17.33
2023-05-06T22:36:02.614Z,17.31
2023-05-06T22:38:32.089Z,17.30
2023-05-06T22:41:00.032Z,17.32
2023-05-06T22:43:28.172Z,17.28
2023-05-06T22:45:56.180Z,17.21
2023-05-06T22:48:24.335Z,17.16
2023-05-06T22:50:53.066Z,17.11
2023-05-06T22:53:20.991Z,17.08
2023-05-06T22:55:50.479Z,17.05
2023-05-06T22:58:18.429Z,17.03
2023-05-06T23:00:48.250Z,17.00
2023-05-06T23:03:17.910Z,16.97
2023-05-06T23:05:46.196Z,16.92
2023-05-06T23:08:14.955Z,16.88
2023-05-06T23:10:43.423Z,16.80
2023-05-06T23:13:13.126Z,16.79
2023-05-06T23:15:41.164Z,16.80
2023-05-06T23:18:09.948Z,16.80
2023-05-06T23:20:37.959Z,16.63
2023-05-06T23:23:06.260Z,16.41
2023-05-06T23:25:34.412Z,16.17
2023-05-06T23:28:02.664Z,16.13
2023-05-06T23:30:32.043Z,16.12
2023-05-06T23:33:00.261Z,16.15
2023-05-06T23:35:28.634Z,16.24
2023-05-06T23:37:56.965Z,16.30
2023-05-06T23:40:24.995Z,16.25
2023-05-06T23:42:55.106Z,16.22
2023-05-06T23:45:23.009Z,16.19
2023-05-06T23:47:52.703Z,16.19
2023-05-06T23:50:20.916Z,16.26
2023-05-06T23:52:49.018Z,16.26
2023-05-06T23:55:17.211Z,16.29
2023-05-06T23:57:45.692Z,16.28
